Portada
METAR-TAF:

METAR-TAF

Aeroports :

Nouméa, Nova Caledònia

latitud: 22-15-30S, longitud: 166-28-22E, altitud: 3 m

METAR: manca

Hora: 08:02 (21:02 UTC)

Pronòstic

L'informe es va fer fa 4 hores i 2 minuts, a les 17:00 UTC
Pronòstic vàlid del 25 a les 18 UTC al 26 a les 18 UTC
Vent 5 kt del Est
Visibilitat 10 km o més
Núvols disperses a una alçada de 1800 ft
Evolucionant progressivament
l' 25 a les 23 UTC al 26 a les 01 UTC
Vent 15 kt del Sud-Est
Probabilitat 30% :
Temporalment
l' 26 a les 00 UTC al 26 a les 06 UTC
Cel ennuvolat a una alçada de 1400 ft
Escasses núvols a una alçada de 1800 ft, Cumulus congestus.
xàfecs de pluja

TAF: NWWM 251700Z 2518/2618 09005KT 9999 SCT018 BECMG 2523/2601 14015KT PROB30 TEMPO 2600/2606 SHRA BKN014 FEW018TCU

Observacions i pronòstics meteorològics de més de 4000 aeroports (METAR i TAF).

Les estacions disponibles són els punts grocs i vermells al mapa.

Posi el ratolí al punt desitjat per veure el nom de l'estació.

Feu clic per veure les observacions i els pronòstics meteorològics.

Per canviar el mapa: feu clic els botons verds amb una creu de color negre per apropar; al botó verd amb un guió per allunyar la imatge; o en les fletxes verdes per a mapes adjacents.


METAR-TAF: